sensor_id;sensor_type;location;lat;lon;timestamp;P1;durP1;ratioP1;P2;durP2;ratioP2
1685;SDS011;840;47.980;7.830;2023-08-21T00:01:29;11.07;;;9.93;;
1685;SDS011;840;47.980;7.830;2023-08-21T00:03:56;9.53;;;8.77;;
1685;SDS011;840;47.980;7.830;2023-08-21T00:06:22;10.00;;;8.93;;
1685;SDS011;840;47.980;7.830;2023-08-21T00:08:49;9.60;;;8.70;;
1685;SDS011;840;47.980;7.830;2023-08-21T00:11:16;10.57;;;9.67;;
1685;SDS011;840;47.980;7.830;2023-08-21T00:13:44;10.10;;;9.20;;
1685;SDS011;840;47.980;7.830;2023-08-21T00:16:13;9.90;;;9.10;;
1685;SDS011;840;47.980;7.830;2023-08-21T00:18:39;10.33;;;9.27;;
1685;SDS011;840;47.980;7.830;2023-08-21T00:21:06;11.10;;;10.03;;
1685;SDS011;840;47.980;7.830;2023-08-21T00:23:33;9.90;;;9.00;;
1685;SDS011;840;47.980;7.830;2023-08-21T00:26:02;11.77;;;9.73;;
1685;SDS011;840;47.980;7.830;2023-08-21T00:28:29;9.93;;;9.03;;
1685;SDS011;840;47.980;7.830;2023-08-21T00:31:01;10.23;;;9.20;;
1685;SDS011;840;47.980;7.830;2023-08-21T00:33:42;9.33;;;8.73;;
1685;SDS011;840;47.980;7.830;2023-08-21T00:36:09;11.43;;;10.47;;
1685;SDS011;840;47.980;7.830;2023-08-21T00:38:35;12.23;;;9.60;;
1685;SDS011;840;47.980;7.830;2023-08-21T00:41:02;10.63;;;9.70;;
1685;SDS011;840;47.980;7.830;2023-08-21T00:43:29;9.60;;;8.80;;
1685;SDS011;840;47.980;7.830;2023-08-21T00:45:56;9.60;;;8.80;;
1685;SDS011;840;47.980;7.830;2023-08-21T00:48:24;8.93;;;8.23;;
1685;SDS011;840;47.980;7.830;2023-08-21T00:50:52;11.50;;;10.03;;
1685;SDS011;840;47.980;7.830;2023-08-21T00:53:19;9.77;;;8.87;;
1685;SDS011;840;47.980;7.830;2023-08-21T00:55:46;10.70;;;9.70;;
1685;SDS011;840;47.980;7.830;2023-08-21T00:58:13;10.97;;;10.17;;
1685;SDS011;840;47.980;7.830;2023-08-21T01:00:40;9.40;;;8.43;;
1685;SDS011;840;47.980;7.830;2023-08-21T01:03:07;10.10;;;9.07;;
1685;SDS011;840;47.980;7.830;2023-08-21T01:05:36;9.47;;;8.77;;
1685;SDS011;840;47.980;7.830;2023-08-21T01:08:04;9.53;;;8.83;;
1685;SDS011;840;47.980;7.830;2023-08-21T01:10:36;9.50;;;8.70;;
1685;SDS011;840;47.980;7.830;2023-08-21T01:13:23;9.60;;;8.70;;
1685;SDS011;840;47.980;7.830;2023-08-21T01:16:00;9.47;;;8.50;;
1685;SDS011;840;47.980;7.830;2023-08-21T01:18:29;13.93;;;9.60;;
1685;SDS011;840;47.980;7.830;2023-08-21T01:20:58;9.30;;;8.40;;
1685;SDS011;840;47.980;7.830;2023-08-21T01:23:33;10.40;;;8.93;;
1685;SDS011;840;47.980;7.830;2023-08-21T01:26:00;11.13;;;10.03;;
1685;SDS011;840;47.980;7.830;2023-08-21T01:28:27;10.40;;;9.27;;
1685;SDS011;840;47.980;7.830;2023-08-21T01:30:58;9.60;;;8.80;;
1685;SDS011;840;47.980;7.830;2023-08-21T01:33:29;9.00;;;8.30;;
1685;SDS011;840;47.980;7.830;2023-08-21T01:35:59;10.30;;;8.97;;
1685;SDS011;840;47.980;7.830;2023-08-21T01:38:30;10.20;;;9.30;;
1685;SDS011;840;47.980;7.830;2023-08-21T01:40:59;10.27;;;9.47;;
1685;SDS011;840;47.980;7.830;2023-08-21T01:43:27;9.40;;;8.50;;
1685;SDS011;840;47.980;7.830;2023-08-21T01:45:54;9.37;;;8.57;;
1685;SDS011;840;47.980;7.830;2023-08-21T01:48:20;9.37;;;8.47;;
1685;SDS011;840;47.980;7.830;2023-08-21T01:50:48;9.73;;;8.83;;
1685;SDS011;840;47.980;7.830;2023-08-21T01:53:14;9.17;;;8.37;;
1685;SDS011;840;47.980;7.830;2023-08-21T01:55:41;9.47;;;8.57;;
1685;SDS011;840;47.980;7.830;2023-08-21T01:58:09;9.60;;;8.80;;
1685;SDS011;840;47.980;7.830;2023-08-21T02:00:36;9.70;;;8.70;;
1685;SDS011;840;47.980;7.830;2023-08-21T02:03:03;9.37;;;8.53;;
1685;SDS011;840;47.980;7.830;2023-08-21T02:05:30;9.90;;;9.20;;
1685;SDS011;840;47.980;7.830;2023-08-21T02:07:56;10.17;;;8.07;;
1685;SDS011;840;47.980;7.830;2023-08-21T02:10:23;11.23;;;9.17;;
1685;SDS011;840;47.980;7.830;2023-08-21T02:12:50;10.13;;;9.30;;
1685;SDS011;840;47.980;7.830;2023-08-21T02:15:18;10.40;;;9.50;;
1685;SDS011;840;47.980;7.830;2023-08-21T02:17:47;10.10;;;9.20;;
1685;SDS011;840;47.980;7.830;2023-08-21T02:20:14;9.30;;;8.50;;
1685;SDS011;840;47.980;7.830;2023-08-21T02:22:40;9.97;;;9.10;;
1685;SDS011;840;47.980;7.830;2023-08-21T02:25:07;10.73;;;9.73;;
1685;SDS011;840;47.980;7.830;2023-08-21T02:27:34;11.27;;;10.17;;
1685;SDS011;840;47.980;7.830;2023-08-21T02:30:01;9.90;;;9.10;;
1685;SDS011;840;47.980;7.830;2023-08-21T02:32:30;9.50;;;8.70;;
1685;SDS011;840;47.980;7.830;2023-08-21T02:34:56;10.73;;;9.60;;
1685;SDS011;840;47.980;7.830;2023-08-21T02:37:23;9.93;;;9.10;;
1685;SDS011;840;47.980;7.830;2023-08-21T02:39:50;8.93;;;7.80;;
1685;SDS011;840;47.980;7.830;2023-08-21T02:42:17;10.30;;;9.30;;
1685;SDS011;840;47.980;7.830;2023-08-21T02:44:43;8.73;;;8.07;;
1685;SDS011;840;47.980;7.830;2023-08-21T02:47:10;9.70;;;8.90;;
1685;SDS011;840;47.980;7.830;2023-08-21T02:49:38;10.63;;;9.70;;
1685;SDS011;840;47.980;7.830;2023-08-21T02:52:05;9.73;;;8.87;;
1685;SDS011;840;47.980;7.830;2023-08-21T02:54:32;10.70;;;9.80;;
1685;SDS011;840;47.980;7.830;2023-08-21T02:56:58;11.00;;;10.00;;
1685;SDS011;840;47.980;7.830;2023-08-21T02:59:25;11.83;;;9.83;;
1685;SDS011;840;47.980;7.830;2023-08-21T03:01:52;9.93;;;9.17;;
1685;SDS011;840;47.980;7.830;2023-08-21T03:04:19;9.90;;;9.20;;
1685;SDS011;840;47.980;7.830;2023-08-21T03:06:47;9.70;;;8.90;;
1685;SDS011;840;47.980;7.830;2023-08-21T03:09:13;9.30;;;8.57;;
1685;SDS011;840;47.980;7.830;2023-08-21T03:11:40;10.13;;;9.23;;
1685;SDS011;840;47.980;7.830;2023-08-21T03:14:07;9.73;;;9.00;;
1685;SDS011;840;47.980;7.830;2023-08-21T03:16:34;10.07;;;9.17;;
1685;SDS011;840;47.980;7.830;2023-08-21T03:19:01;9.90;;;9.00;;
1685;SDS011;840;47.980;7.830;2023-08-21T03:21:27;10.00;;;8.47;;
1685;SDS011;840;47.980;7.830;2023-08-21T03:23:56;9.33;;;8.63;;
1685;SDS011;840;47.980;7.830;2023-08-21T03:26:25;10.70;;;9.90;;
1685;SDS011;840;47.980;7.830;2023-08-21T03:28:52;9.77;;;8.97;;
1685;SDS011;840;47.980;7.830;2023-08-21T03:31:18;10.47;;;9.50;;
1685;SDS011;840;47.980;7.830;2023-08-21T03:33:45;9.10;;;8.20;;
1685;SDS011;840;47.980;7.830;2023-08-21T03:36:12;10.47;;;9.53;;
1685;SDS011;840;47.980;7.830;2023-08-21T03:38:39;11.30;;;10.20;;
1685;SDS011;840;47.980;7.830;2023-08-21T03:41:07;11.17;;;10.17;;
1685;SDS011;840;47.980;7.830;2023-08-21T03:43:34;10.43;;;9.47;;
1685;SDS011;840;47.980;7.830;2023-08-21T03:46:01;9.73;;;8.93;;
1685;SDS011;840;47.980;7.830;2023-08-21T03:48:27;11.23;;;9.60;;
1685;SDS011;840;47.980;7.830;2023-08-21T03:50:54;9.20;;;8.23;;
1685;SDS011;840;47.980;7.830;2023-08-21T03:53:21;9.53;;;8.70;;
1685;SDS011;840;47.980;7.830;2023-08-21T03:55:50;11.00;;;9.90;;
1685;SDS011;840;47.980;7.830;2023-08-21T03:58:18;9.77;;;9.07;;
1685;SDS011;840;47.980;7.830;2023-08-21T04:00:45;9.67;;;8.87;;
1685;SDS011;840;47.980;7.830;2023-08-21T04:03:12;9.90;;;8.93;;
1685;SDS011;840;47.980;7.830;2023-08-21T04:05:39;12.90;;;10.00;;
1685;SDS011;840;47.980;7.830;2023-08-21T04:08:05;9.87;;;9.07;;
1685;SDS011;840;47.980;7.830;2023-08-21T04:10:32;9.67;;;8.83;;
1685;SDS011;840;47.980;7.830;2023-08-21T04:12:59;11.10;;;10.07;;
1685;SDS011;840;47.980;7.830;2023-08-21T04:15:27;9.50;;;8.60;;
1685;SDS011;840;47.980;7.830;2023-08-21T04:17:54;11.77;;;9.37;;
1685;SDS011;840;47.980;7.830;2023-08-21T04:20:21;10.73;;;9.63;;
1685;SDS011;840;47.980;7.830;2023-08-21T04:22:48;11.77;;;10.37;;
1685;SDS011;840;47.980;7.830;2023-08-21T04:25:14;10.23;;;9.30;;
1685;SDS011;840;47.980;7.830;2023-08-21T04:27:41;11.13;;;10.13;;
1685;SDS011;840;47.980;7.830;2023-08-21T04:30:09;10.70;;;9.50;;
1685;SDS011;840;47.980;7.830;2023-08-21T04:32:38;11.30;;;10.23;;
1685;SDS011;840;47.980;7.830;2023-08-21T04:35:05;10.33;;;9.37;;
1685;SDS011;840;47.980;7.830;2023-08-21T04:37:34;10.00;;;9.07;;
1685;SDS011;840;47.980;7.830;2023-08-21T04:40:00;11.37;;;10.50;;
1685;SDS011;840;47.980;7.830;2023-08-21T04:42:27;10.27;;;9.30;;
1685;SDS011;840;47.980;7.830;2023-08-21T04:44:54;11.23;;;10.20;;
1685;SDS011;840;47.980;7.830;2023-08-21T04:47:22;9.43;;;8.73;;
1685;SDS011;840;47.980;7.830;2023-08-21T04:49:50;10.50;;;9.60;;
1685;SDS011;840;47.980;7.830;2023-08-21T04:52:17;10.73;;;9.90;;
1685;SDS011;840;47.980;7.830;2023-08-21T04:54:44;11.90;;;10.67;;
1685;SDS011;840;47.980;7.830;2023-08-21T04:57:11;11.23;;;10.20;;
1685;SDS011;840;47.980;7.830;2023-08-21T04:59:38;10.60;;;9.60;;
1685;SDS011;840;47.980;7.830;2023-08-21T05:02:04;10.90;;;10.00;;
1685;SDS011;840;47.980;7.830;2023-08-21T05:04:31;10.53;;;9.73;;
1685;SDS011;840;47.980;7.830;2023-08-21T05:07:00;10.93;;;9.97;;
1685;SDS011;840;47.980;7.830;2023-08-21T05:09:26;11.30;;;10.30;;
1685;SDS011;840;47.980;7.830;2023-08-21T05:11:53;10.80;;;9.90;;
1685;SDS011;840;47.980;7.830;2023-08-21T05:14:20;10.00;;;9.00;;
1685;SDS011;840;47.980;7.830;2023-08-21T05:16:48;10.60;;;9.53;;
1685;SDS011;840;47.980;7.830;2023-08-21T05:19:14;12.30;;;10.40;;
1685;SDS011;840;47.980;7.830;2023-08-21T05:21:41;13.90;;;8.90;;
1685;SDS011;840;47.980;7.830;2023-08-21T05:24:10;11.80;;;9.63;;
1685;SDS011;840;47.980;7.830;2023-08-21T05:26:37;10.20;;;9.40;;
1685;SDS011;840;47.980;7.830;2023-08-21T05:29:04;11.33;;;10.20;;
1685;SDS011;840;47.980;7.830;2023-08-21T05:31:31;10.47;;;9.57;;
1685;SDS011;840;47.980;7.830;2023-08-21T05:34:01;10.53;;;9.43;;
1685;SDS011;840;47.980;7.830;2023-08-21T05:36:27;10.00;;;9.10;;
1685;SDS011;840;47.980;7.830;2023-08-21T05:38:55;10.10;;;9.00;;
1685;SDS011;840;47.980;7.830;2023-08-21T05:41:24;11.17;;;10.20;;
1685;SDS011;840;47.980;7.830;2023-08-21T05:43:50;10.50;;;9.60;;
1685;SDS011;840;47.980;7.830;2023-08-21T05:46:17;11.73;;;10.73;;
1685;SDS011;840;47.980;7.830;2023-08-21T05:48:44;10.97;;;10.13;;
1685;SDS011;840;47.980;7.830;2023-08-21T05:51:11;10.07;;;9.27;;
1685;SDS011;840;47.980;7.830;2023-08-21T05:53:38;10.93;;;9.93;;
1685;SDS011;840;47.980;7.830;2023-08-21T05:56:04;10.00;;;8.97;;
1685;SDS011;840;47.980;7.830;2023-08-21T05:58:32;10.60;;;9.60;;
1685;SDS011;840;47.980;7.830;2023-08-21T06:00:59;10.23;;;9.33;;
1685;SDS011;840;47.980;7.830;2023-08-21T06:03:26;10.53;;;9.40;;
1685;SDS011;840;47.980;7.830;2023-08-21T06:05:53;9.80;;;9.00;;
1685;SDS011;840;47.980;7.830;2023-08-21T06:08:20;10.23;;;9.20;;
1685;SDS011;840;47.980;7.830;2023-08-21T06:10:50;9.87;;;9.00;;
1685;SDS011;840;47.980;7.830;2023-08-21T06:13:32;11.13;;;10.13;;
1685;SDS011;840;47.980;7.830;2023-08-21T06:15:59;9.73;;;8.73;;
1685;SDS011;840;47.980;7.830;2023-08-21T06:18:26;10.77;;;9.87;;
1685;SDS011;840;47.980;7.830;2023-08-21T06:20:52;11.43;;;10.33;;
1685;SDS011;840;47.980;7.830;2023-08-21T06:23:21;11.90;;;10.47;;
1685;SDS011;840;47.980;7.830;2023-08-21T06:25:48;11.77;;;10.10;;
1685;SDS011;840;47.980;7.830;2023-08-21T06:28:15;11.40;;;10.20;;
1685;SDS011;840;47.980;7.830;2023-08-21T06:30:43;11.20;;;10.30;;
1685;SDS011;840;47.980;7.830;2023-08-21T06:33:10;12.53;;;11.40;;
1685;SDS011;840;47.980;7.830;2023-08-21T06:35:37;11.00;;;10.10;;
1685;SDS011;840;47.980;7.830;2023-08-21T06:38:04;11.37;;;10.40;;
1685;SDS011;840;47.980;7.830;2023-08-21T06:40:31;12.70;;;11.60;;
1685;SDS011;840;47.980;7.830;2023-08-21T06:42:57;12.10;;;11.00;;
1685;SDS011;840;47.980;7.830;2023-08-21T06:45:24;11.23;;;10.33;;
1685;SDS011;840;47.980;7.830;2023-08-21T06:47:55;12.60;;;10.87;;
1685;SDS011;840;47.980;7.830;2023-08-21T06:50:21;10.53;;;9.67;;
1685;SDS011;840;47.980;7.830;2023-08-21T06:52:48;10.93;;;10.03;;
1685;SDS011;840;47.980;7.830;2023-08-21T06:55:15;12.20;;;11.10;;
1685;SDS011;840;47.980;7.830;2023-08-21T06:57:42;11.53;;;10.33;;
1685;SDS011;840;47.980;7.830;2023-08-21T07:00:09;12.67;;;10.70;;
1685;SDS011;840;47.980;7.830;2023-08-21T07:02:36;10.40;;;9.30;;
1685;SDS011;840;47.980;7.830;2023-08-21T07:05:05;12.40;;;11.13;;
1685;SDS011;840;47.980;7.830;2023-08-21T07:07:33;11.40;;;10.50;;
1685;SDS011;840;47.980;7.830;2023-08-21T07:10:00;12.07;;;11.03;;
1685;SDS011;840;47.980;7.830;2023-08-21T07:12:28;9.97;;;9.17;;
1685;SDS011;840;47.980;7.830;2023-08-21T07:14:55;10.60;;;9.70;;
1685;SDS011;840;47.980;7.830;2023-08-21T07:17:22;12.07;;;11.10;;
1685;SDS011;840;47.980;7.830;2023-08-21T07:19:49;10.33;;;9.33;;
1685;SDS011;840;47.980;7.830;2023-08-21T07:22:18;10.40;;;9.60;;
1685;SDS011;840;47.980;7.830;2023-08-21T07:24:46;9.97;;;9.07;;
1685;SDS011;840;47.980;7.830;2023-08-21T07:27:13;10.57;;;9.77;;
1685;SDS011;840;47.980;7.830;2023-08-21T07:29:39;10.47;;;9.23;;
1685;SDS011;840;47.980;7.830;2023-08-21T07:32:08;9.23;;;8.53;;
1685;SDS011;840;47.980;7.830;2023-08-21T07:34:41;10.73;;;9.60;;
1685;SDS011;840;47.980;7.830;2023-08-21T07:37:08;9.50;;;8.60;;
1685;SDS011;840;47.980;7.830;2023-08-21T07:39:36;11.80;;;9.60;;
1685;SDS011;840;47.980;7.830;2023-08-21T07:42:03;10.07;;;9.10;;
1685;SDS011;840;47.980;7.830;2023-08-21T07:44:30;9.77;;;9.07;;
1685;SDS011;840;47.980;7.830;2023-08-21T07:46:57;9.43;;;8.73;;
1685;SDS011;840;47.980;7.830;2023-08-21T07:49:23;9.93;;;9.13;;
1685;SDS011;840;47.980;7.830;2023-08-21T07:51:50;9.93;;;9.03;;
1685;SDS011;840;47.980;7.830;2023-08-21T07:54:17;11.10;;;9.70;;
1685;SDS011;840;47.980;7.830;2023-08-21T07:56:45;10.67;;;8.80;;
1685;SDS011;840;47.980;7.830;2023-08-21T07:59:11;10.50;;;8.63;;
1685;SDS011;840;47.980;7.830;2023-08-21T08:01:38;9.13;;;8.43;;
1685;SDS011;840;47.980;7.830;2023-08-21T08:04:05;10.73;;;9.93;;
1685;SDS011;840;47.980;7.830;2023-08-21T08:06:32;10.70;;;9.60;;
1685;SDS011;840;47.980;7.830;2023-08-21T08:08:58;10.83;;;9.87;;
1685;SDS011;840;47.980;7.830;2023-08-21T08:11:25;10.40;;;9.33;;
1685;SDS011;840;47.980;7.830;2023-08-21T08:13:54;12.03;;;8.03;;
1685;SDS011;840;47.980;7.830;2023-08-21T08:16:21;9.80;;;9.03;;
1685;SDS011;840;47.980;7.830;2023-08-21T08:18:47;13.03;;;11.30;;
1685;SDS011;840;47.980;7.830;2023-08-21T08:21:15;14.70;;;10.50;;
1685;SDS011;840;47.980;7.830;2023-08-21T08:23:42;12.70;;;9.57;;
1685;SDS011;840;47.980;7.830;2023-08-21T08:26:09;10.47;;;9.50;;
1685;SDS011;840;47.980;7.830;2023-08-21T08:28:36;9.53;;;8.63;;
1685;SDS011;840;47.980;7.830;2023-08-21T08:31:04;11.73;;;9.30;;
1685;SDS011;840;47.980;7.830;2023-08-21T08:33:31;9.53;;;8.70;;
1685;SDS011;840;47.980;7.830;2023-08-21T08:35:57;9.20;;;8.50;;
1685;SDS011;840;47.980;7.830;2023-08-21T08:38:24;9.47;;;8.57;;
1685;SDS011;840;47.980;7.830;2023-08-21T08:40:51;9.53;;;8.73;;
1685;SDS011;840;47.980;7.830;2023-08-21T08:43:19;10.13;;;9.40;;
1685;SDS011;840;47.980;7.830;2023-08-21T08:45:48;9.67;;;8.77;;
1685;SDS011;840;47.980;7.830;2023-08-21T08:48:18;10.43;;;9.43;;
1685;SDS011;840;47.980;7.830;2023-08-21T08:50:46;9.87;;;8.80;;
1685;SDS011;840;47.980;7.830;2023-08-21T08:53:16;9.27;;;8.37;;
1685;SDS011;840;47.980;7.830;2023-08-21T08:55:44;8.80;;;8.00;;
1685;SDS011;840;47.980;7.830;2023-08-21T08:58:11;10.70;;;8.73;;
1685;SDS011;840;47.980;7.830;2023-08-21T09:00:38;13.30;;;10.17;;
1685;SDS011;840;47.980;7.830;2023-08-21T09:03:05;10.50;;;9.17;;
1685;SDS011;840;47.980;7.830;2023-08-21T09:05:33;11.83;;;9.43;;
1685;SDS011;840;47.980;7.830;2023-08-21T09:08:09;11.70;;;9.00;;
1685;SDS011;840;47.980;7.830;2023-08-21T09:10:37;8.83;;;8.03;;
1685;SDS011;840;47.980;7.830;2023-08-21T09:13:11;9.20;;;8.40;;
1685;SDS011;840;47.980;7.830;2023-08-21T09:15:40;8.70;;;7.90;;
1685;SDS011;840;47.980;7.830;2023-08-21T09:18:08;10.07;;;9.07;;
1685;SDS011;840;47.980;7.830;2023-08-21T09:20:37;9.17;;;8.30;;
1685;SDS011;840;47.980;7.830;2023-08-21T09:23:04;12.60;;;8.13;;
1685;SDS011;840;47.980;7.830;2023-08-21T09:25:34;9.00;;;8.40;;
1685;SDS011;840;47.980;7.830;2023-08-21T09:28:04;10.10;;;7.53;;
1685;SDS011;840;47.980;7.830;2023-08-21T09:30:43;9.77;;;8.87;;
1685;SDS011;840;47.980;7.830;2023-08-21T09:33:16;9.17;;;8.43;;
1685;SDS011;840;47.980;7.830;2023-08-21T09:35:45;8.63;;;7.83;;
1685;SDS011;840;47.980;7.830;2023-08-21T09:38:12;9.57;;;8.67;;
1685;SDS011;840;47.980;7.830;2023-08-21T09:40:39;8.83;;;8.03;;
1685;SDS011;840;47.980;7.830;2023-08-21T09:43:07;10.00;;;9.10;;
1685;SDS011;840;47.980;7.830;2023-08-21T09:45:35;10.03;;;9.17;;
1685;SDS011;840;47.980;7.830;2023-08-21T09:48:02;8.80;;;7.83;;
1685;SDS011;840;47.980;7.830;2023-08-21T09:50:30;9.80;;;8.90;;
1685;SDS011;840;47.980;7.830;2023-08-21T09:52:58;11.60;;;9.63;;
1685;SDS011;840;47.980;7.830;2023-08-21T09:55:25;10.03;;;8.60;;
1685;SDS011;840;47.980;7.830;2023-08-21T09:57:54;9.33;;;8.30;;
1685;SDS011;840;47.980;7.830;2023-08-21T10:00:26;9.63;;;8.73;;
1685;SDS011;840;47.980;7.830;2023-08-21T10:02:54;10.03;;;9.27;;
1685;SDS011;840;47.980;7.830;2023-08-21T10:05:26;9.37;;;8.67;;
1685;SDS011;840;47.980;7.830;2023-08-21T10:07:53;11.17;;;9.17;;
1685;SDS011;840;47.980;7.830;2023-08-21T10:10:23;8.77;;;8.03;;
1685;SDS011;840;47.980;7.830;2023-08-21T10:12:50;9.70;;;8.90;;
1685;SDS011;840;47.980;7.830;2023-08-21T10:15:17;8.30;;;7.50;;
1685;SDS011;840;47.980;7.830;2023-08-21T10:17:44;10.13;;;9.20;;
1685;SDS011;840;47.980;7.830;2023-08-21T10:20:11;8.80;;;8.00;;
1685;SDS011;840;47.980;7.830;2023-08-21T10:22:42;8.93;;;8.23;;
1685;SDS011;840;47.980;7.830;2023-08-21T10:25:13;9.63;;;8.83;;
1685;SDS011;840;47.980;7.830;2023-08-21T10:27:43;9.33;;;8.50;;
1685;SDS011;840;47.980;7.830;2023-08-21T10:30:12;16.47;;;9.27;;
1685;SDS011;840;47.980;7.830;2023-08-21T10:32:44;10.40;;;9.60;;
1685;SDS011;840;47.980;7.830;2023-08-21T10:35:13;10.87;;;9.33;;
1685;SDS011;840;47.980;7.830;2023-08-21T10:40:32;8.53;;;7.83;;
1685;SDS011;840;47.980;7.830;2023-08-21T10:43:01;13.13;;;10.77;;
1685;SDS011;840;47.980;7.830;2023-08-21T10:45:28;9.63;;;8.73;;
1685;SDS011;840;47.980;7.830;2023-08-21T10:47:56;11.03;;;8.90;;
1685;SDS011;840;47.980;7.830;2023-08-21T10:50:24;10.17;;;9.20;;
1685;SDS011;840;47.980;7.830;2023-08-21T10:52:51;10.03;;;9.30;;
1685;SDS011;840;47.980;7.830;2023-08-21T10:55:19;10.07;;;8.97;;
1685;SDS011;840;47.980;7.830;2023-08-21T10:57:46;8.50;;;7.80;;
1685;SDS011;840;47.980;7.830;2023-08-21T11:00:16;9.73;;;8.90;;
1685;SDS011;840;47.980;7.830;2023-08-21T11:02:44;9.63;;;8.77;;
1685;SDS011;840;47.980;7.830;2023-08-21T11:05:13;9.57;;;8.87;;
1685;SDS011;840;47.980;7.830;2023-08-21T11:07:40;7.80;;;7.20;;
1685;SDS011;840;47.980;7.830;2023-08-21T11:10:09;9.50;;;8.17;;
1685;SDS011;840;47.980;7.830;2023-08-21T11:12:38;8.03;;;7.30;;
1685;SDS011;840;47.980;7.830;2023-08-21T11:15:13;8.70;;;7.90;;
1685;SDS011;840;47.980;7.830;2023-08-21T11:17:42;8.80;;;7.97;;
1685;SDS011;840;47.980;7.830;2023-08-21T11:20:16;8.73;;;6.67;;
1685;SDS011;840;47.980;7.830;2023-08-21T11:22:43;8.80;;;8.00;;
1685;SDS011;840;47.980;7.830;2023-08-21T11:25:10;12.67;;;9.00;;
1685;SDS011;840;47.980;7.830;2023-08-21T11:27:37;17.80;;;11.93;;
1685;SDS011;840;47.980;7.830;2023-08-21T11:30:05;9.90;;;7.53;;
1685;SDS011;840;47.980;7.830;2023-08-21T11:32:34;11.57;;;7.73;;
1685;SDS011;840;47.980;7.830;2023-08-21T11:35:00;7.97;;;7.27;;
1685;SDS011;840;47.980;7.830;2023-08-21T11:37:28;7.63;;;6.97;;
1685;SDS011;840;47.980;7.830;2023-08-21T11:39:55;9.43;;;8.10;;
1685;SDS011;840;47.980;7.830;2023-08-21T11:42:28;7.90;;;7.23;;
1685;SDS011;840;47.980;7.830;2023-08-21T11:44:56;9.17;;;6.63;;
1685;SDS011;840;47.980;7.830;2023-08-21T11:47:26;12.83;;;8.67;;
1685;SDS011;840;47.980;7.830;2023-08-21T11:50:01;8.17;;;7.47;;
1685;SDS011;840;47.980;7.830;2023-08-21T11:52:29;7.90;;;7.13;;
1685;SDS011;840;47.980;7.830;2023-08-21T11:54:57;6.73;;;6.33;;
1685;SDS011;840;47.980;7.830;2023-08-21T11:57:24;9.20;;;8.47;;
1685;SDS011;840;47.980;7.830;2023-08-21T11:59:50;9.20;;;7.57;;
1685;SDS011;840;47.980;7.830;2023-08-21T12:02:18;7.97;;;7.27;;
1685;SDS011;840;47.980;7.830;2023-08-21T12:04:51;7.80;;;7.20;;
1685;SDS011;840;47.980;7.830;2023-08-21T12:07:20;11.50;;;7.67;;
1685;SDS011;840;47.980;7.830;2023-08-21T12:09:47;7.87;;;7.10;;
1685;SDS011;840;47.980;7.830;2023-08-21T12:12:14;8.00;;;7.30;;
1685;SDS011;840;47.980;7.830;2023-08-21T12:14:41;8.00;;;7.20;;
1685;SDS011;840;47.980;7.830;2023-08-21T12:17:08;7.60;;;7.00;;
1685;SDS011;840;47.980;7.830;2023-08-21T12:19:35;7.43;;;6.83;;
1685;SDS011;840;47.980;7.830;2023-08-21T12:22:02;8.20;;;7.60;;
1685;SDS011;840;47.980;7.830;2023-08-21T12:24:30;8.23;;;7.53;;
1685;SDS011;840;47.980;7.830;2023-08-21T12:26:57;7.67;;;6.93;;
1685;SDS011;840;47.980;7.830;2023-08-21T12:29:24;7.60;;;6.97;;
1685;SDS011;840;47.980;7.830;2023-08-21T12:31:51;8.67;;;7.77;;
1685;SDS011;840;47.980;7.830;2023-08-21T12:34:17;7.87;;;7.07;;
1685;SDS011;840;47.980;7.830;2023-08-21T12:36:44;8.50;;;7.73;;
1685;SDS011;840;47.980;7.830;2023-08-21T12:39:11;7.50;;;7.00;;
1685;SDS011;840;47.980;7.830;2023-08-21T12:41:40;7.90;;;7.07;;
1685;SDS011;840;47.980;7.830;2023-08-21T12:44:07;8.97;;;6.50;;
1685;SDS011;840;47.980;7.830;2023-08-21T12:46:34;7.93;;;6.40;;
1685;SDS011;840;47.980;7.830;2023-08-21T12:49:01;6.30;;;5.90;;
1685;SDS011;840;47.980;7.830;2023-08-21T12:51:29;6.77;;;6.20;;
1685;SDS011;840;47.980;7.830;2023-08-21T12:53:56;7.00;;;6.50;;
1685;SDS011;840;47.980;7.830;2023-08-21T12:56:22;7.67;;;7.00;;
1685;SDS011;840;47.980;7.830;2023-08-21T12:58:51;6.93;;;6.33;;
1685;SDS011;840;47.980;7.830;2023-08-21T13:01:17;7.47;;;6.50;;
1685;SDS011;840;47.980;7.830;2023-08-21T13:03:44;7.10;;;5.60;;
1685;SDS011;840;47.980;7.830;2023-08-21T13:06:12;6.40;;;6.00;;
1685;SDS011;840;47.980;7.830;2023-08-21T13:08:38;8.37;;;7.50;;
1685;SDS011;840;47.980;7.830;2023-08-21T13:11:05;6.00;;;5.47;;
1685;SDS011;840;47.980;7.830;2023-08-21T13:13:32;9.00;;;6.67;;
1685;SDS011;840;47.980;7.830;2023-08-21T13:16:01;9.73;;;6.00;;
1685;SDS011;840;47.980;7.830;2023-08-21T13:18:28;7.30;;;6.53;;
1685;SDS011;840;47.980;7.830;2023-08-21T13:20:55;7.97;;;6.57;;
1685;SDS011;840;47.980;7.830;2023-08-21T13:23:22;6.03;;;5.50;;
1685;SDS011;840;47.980;7.830;2023-08-21T13:25:49;6.10;;;5.60;;
1685;SDS011;840;47.980;7.830;2023-08-21T13:28:16;8.17;;;6.40;;
1685;SDS011;840;47.980;7.830;2023-08-21T13:30:42;9.37;;;6.20;;
1685;SDS011;840;47.980;7.830;2023-08-21T13:33:11;6.77;;;6.27;;
1685;SDS011;840;47.980;7.830;2023-08-21T13:35:40;6.80;;;6.10;;
1685;SDS011;840;47.980;7.830;2023-08-21T13:38:07;6.40;;;5.80;;
1685;SDS011;840;47.980;7.830;2023-08-21T13:40:33;10.97;;;7.17;;
1685;SDS011;840;47.980;7.830;2023-08-21T13:43:00;6.73;;;6.07;;
1685;SDS011;840;47.980;7.830;2023-08-21T13:45:28;6.90;;;6.23;;
1685;SDS011;840;47.980;7.830;2023-08-21T13:47:55;6.40;;;5.90;;
1685;SDS011;840;47.980;7.830;2023-08-21T13:50:23;6.70;;;6.00;;
1685;SDS011;840;47.980;7.830;2023-08-21T13:52:50;6.30;;;5.70;;
1685;SDS011;840;47.980;7.830;2023-08-21T13:55:16;10.13;;;6.23;;
1685;SDS011;840;47.980;7.830;2023-08-21T13:57:43;6.07;;;5.67;;
1685;SDS011;840;47.980;7.830;2023-08-21T14:00:11;7.27;;;6.57;;
1685;SDS011;840;47.980;7.830;2023-08-21T14:02:38;6.87;;;6.20;;
1685;SDS011;840;47.980;7.830;2023-08-21T14:05:06;6.20;;;5.67;;
1685;SDS011;840;47.980;7.830;2023-08-21T14:07:36;6.07;;;5.57;;
1685;SDS011;840;47.980;7.830;2023-08-21T14:10:04;5.77;;;5.20;;
1685;SDS011;840;47.980;7.830;2023-08-21T14:12:31;6.33;;;5.83;;
1685;SDS011;840;47.980;7.830;2023-08-21T14:14:58;7.97;;;5.53;;
1685;SDS011;840;47.980;7.830;2023-08-21T14:17:25;6.20;;;5.70;;
1685;SDS011;840;47.980;7.830;2023-08-21T14:19:53;8.10;;;6.57;;
1685;SDS011;840;47.980;7.830;2023-08-21T14:22:20;5.77;;;5.30;;
1685;SDS011;840;47.980;7.830;2023-08-21T14:24:48;6.63;;;6.10;;
1685;SDS011;840;47.980;7.830;2023-08-21T14:27:15;7.77;;;5.80;;
1685;SDS011;840;47.980;7.830;2023-08-21T14:29:42;12.17;;;7.03;;
1685;SDS011;840;47.980;7.830;2023-08-21T14:32:09;8.50;;;6.30;;
1685;SDS011;840;47.980;7.830;2023-08-21T14:34:36;5.53;;;5.03;;
1685;SDS011;840;47.980;7.830;2023-08-21T14:37:02;5.03;;;4.57;;
1685;SDS011;840;47.980;7.830;2023-08-21T14:39:30;6.53;;;4.83;;
1685;SDS011;840;47.980;7.830;2023-08-21T14:41:58;5.37;;;4.80;;
1685;SDS011;840;47.980;7.830;2023-08-21T14:44:26;6.60;;;4.90;;
1685;SDS011;840;47.980;7.830;2023-08-21T14:46:53;6.17;;;5.60;;
1685;SDS011;840;47.980;7.830;2023-08-21T14:49:21;7.03;;;5.40;;
1685;SDS011;840;47.980;7.830;2023-08-21T14:51:48;7.00;;;4.80;;
1685;SDS011;840;47.980;7.830;2023-08-21T14:54:14;5.77;;;5.27;;
1685;SDS011;840;47.980;7.830;2023-08-21T14:56:41;6.17;;;4.77;;
1685;SDS011;840;47.980;7.830;2023-08-21T14:59:09;7.33;;;4.43;;
1685;SDS011;840;47.980;7.830;2023-08-21T15:01:36;8.43;;;5.73;;
1685;SDS011;840;47.980;7.830;2023-08-21T15:04:04;5.90;;;4.10;;
1685;SDS011;840;47.980;7.830;2023-08-21T15:06:30;5.23;;;4.90;;
1685;SDS011;840;47.980;7.830;2023-08-21T15:08:57;5.47;;;5.07;;
1685;SDS011;840;47.980;7.830;2023-08-21T15:11:24;10.47;;;5.00;;
1685;SDS011;840;47.980;7.830;2023-08-21T15:13:51;5.57;;;4.67;;
1685;SDS011;840;47.980;7.830;2023-08-21T15:16:19;5.97;;;5.47;;
1685;SDS011;840;47.980;7.830;2023-08-21T15:18:45;4.20;;;3.80;;
1685;SDS011;840;47.980;7.830;2023-08-21T15:21:16;5.77;;;5.27;;
1685;SDS011;840;47.980;7.830;2023-08-21T15:23:43;5.20;;;4.33;;
1685;SDS011;840;47.980;7.830;2023-08-21T15:26:10;7.27;;;5.20;;
1685;SDS011;840;47.980;7.830;2023-08-21T15:28:36;5.07;;;4.60;;